createdAt,value
2018-07-17T00:00:48.690Z,23.10
2018-07-17T00:03:17.607Z,23.00
2018-07-17T00:05:46.452Z,23.10
2018-07-17T00:08:15.385Z,23.10
2018-07-17T00:13:12.776Z,23.10
2018-07-17T00:15:41.667Z,23.10
2018-07-17T00:18:10.551Z,23.10
2018-07-17T00:20:39.475Z,23.10
2018-07-17T00:23:08.352Z,23.10
2018-07-17T00:25:37.288Z,23.10
2018-07-17T00:28:06.164Z,23.10
2018-07-17T00:30:35.070Z,23.10
2018-07-17T00:33:03.971Z,23.10
2018-07-17T00:35:32.827Z,23.00
2018-07-17T00:38:01.700Z,23.00
2018-07-17T00:40:30.584Z,22.90
2018-07-17T00:42:59.449Z,22.80
2018-07-17T00:45:28.392Z,22.70
2018-07-17T00:47:57.292Z,22.70
2018-07-17T00:50:26.187Z,22.70
2018-07-17T00:52:55.038Z,22.60
2018-07-17T00:55:23.891Z,22.60
2018-07-17T00:57:52.734Z,22.60
2018-07-17T01:00:21.667Z,22.60
2018-07-17T01:02:50.522Z,22.60
2018-07-17T01:05:19.421Z,22.60
2018-07-17T01:07:48.312Z,22.70
2018-07-17T01:10:17.391Z,22.70
2018-07-17T01:12:46.253Z,22.70
2018-07-17T01:15:15.256Z,22.70
2018-07-17T01:17:44.116Z,22.60
2018-07-17T01:20:13.049Z,22.60
2018-07-17T01:22:42.041Z,22.60
2018-07-17T01:25:10.872Z,22.60
2018-07-17T01:27:39.919Z,22.60
2018-07-17T01:30:08.777Z,22.60
2018-07-17T01:32:37.839Z,22.60
2018-07-17T01:35:06.799Z,22.60
2018-07-17T01:37:35.847Z,22.60
2018-07-17T01:40:05.008Z,22.60
2018-07-17T01:42:34.003Z,22.60
2018-07-17T01:47:31.384Z,22.60
2018-07-17T01:50:00.318Z,22.60
2018-07-17T01:52:29.217Z,22.60
2018-07-17T01:54:58.102Z,22.50
2018-07-17T01:57:26.988Z,22.40
2018-07-17T01:59:55.876Z,22.40
2018-07-17T02:02:24.764Z,22.30
2018-07-17T02:04:53.742Z,22.30
2018-07-17T02:07:22.570Z,22.30
2018-07-17T02:09:51.501Z,22.30
2018-07-17T02:12:20.384Z,22.30
2018-07-17T02:14:49.363Z,22.30
2018-07-17T02:17:18.219Z,22.20
2018-07-17T02:19:47.124Z,22.20
2018-07-17T02:22:16.020Z,22.20
2018-07-17T02:24:44.927Z,22.20
2018-07-17T02:27:13.921Z,22.20
2018-07-17T02:29:42.908Z,22.20
2018-07-17T02:32:11.800Z,22.10
2018-07-17T02:34:40.664Z,22.00
2018-07-17T02:37:09.620Z,22.10
2018-07-17T02:39:38.508Z,22.00
2018-07-17T02:42:07.780Z,22.00
2018-07-17T02:44:36.609Z,21.90
2018-07-17T02:47:05.552Z,21.90
2018-07-17T02:49:34.429Z,21.80
2018-07-17T02:52:03.359Z,21.80
2018-07-17T02:54:32.221Z,21.60
2018-07-17T02:57:01.094Z,21.60
2018-07-17T02:59:30.057Z,21.60
2018-07-17T03:01:58.951Z,21.60
2018-07-17T03:04:27.871Z,21.50
2018-07-17T03:06:56.848Z,21.50
2018-07-17T03:09:25.611Z,21.50
2018-07-17T03:11:54.476Z,21.50
2018-07-17T03:14:23.371Z,21.40
2018-07-17T03:16:52.248Z,21.40
2018-07-17T03:19:21.184Z,21.40
2018-07-17T03:21:50.074Z,21.40
2018-07-17T03:24:18.975Z,21.40
2018-07-17T03:26:47.841Z,21.30
2018-07-17T03:29:16.732Z,21.30
2018-07-17T03:31:45.684Z,21.30
2018-07-17T03:34:14.569Z,21.40
2018-07-17T03:36:43.460Z,21.40
2018-07-17T03:39:12.307Z,21.40
2018-07-17T03:41:41.228Z,21.40
2018-07-17T03:44:11.059Z,21.30
2018-07-17T03:46:39.927Z,21.30
2018-07-17T03:49:08.827Z,21.30
2018-07-17T03:51:37.761Z,21.30
2018-07-17T03:54:06.691Z,21.10
2018-07-17T03:56:35.924Z,21.00
2018-07-17T03:59:04.918Z,21.10
2018-07-17T04:01:34.011Z,21.10
2018-07-17T04:04:02.888Z,21.60
2018-07-17T04:06:32.028Z,21.80
2018-07-17T04:09:00.916Z,22.00
2018-07-17T04:11:29.867Z,22.20
2018-07-17T04:13:58.763Z,22.30
2018-07-17T04:16:27.661Z,22.20
2018-07-17T04:18:56.875Z,22.30
2018-07-17T04:21:26.088Z,22.30
2018-07-17T04:23:54.942Z,22.40
2018-07-17T04:26:24.356Z,22.50
2018-07-17T04:28:53.207Z,22.50
2018-07-17T04:31:22.103Z,22.70
2018-07-17T04:33:50.975Z,23.00
2018-07-17T04:36:19.877Z,23.30
2018-07-17T04:38:48.935Z,23.50
2018-07-17T04:41:17.797Z,23.80
2018-07-17T04:43:46.729Z,24.10
2018-07-17T04:46:15.607Z,24.30
2018-07-17T04:48:44.519Z,24.50
2018-07-17T04:51:13.520Z,24.70
2018-07-17T04:53:42.423Z,25.10
2018-07-17T04:56:11.275Z,25.50
2018-07-17T05:01:08.603Z,25.90
2018-07-17T05:03:37.499Z,26.00
2018-07-17T05:06:06.696Z,26.10
2018-07-17T05:08:35.693Z,26.30
2018-07-17T05:11:04.685Z,26.60
2018-07-17T05:13:33.657Z,27.10
2018-07-17T05:16:02.579Z,27.50
2018-07-17T05:18:31.456Z,27.90
2018-07-17T05:21:00.356Z,28.20
2018-07-17T05:23:29.335Z,28.50
2018-07-17T05:25:58.340Z,28.70
2018-07-17T05:28:27.315Z,28.90
2018-07-17T05:30:56.501Z,29.10
2018-07-17T05:33:25.381Z,29.30
2018-07-17T05:35:54.326Z,29.60
2018-07-17T05:38:23.172Z,29.70
2018-07-17T05:40:52.111Z,29.90
2018-07-17T05:43:20.971Z,30.00
2018-07-17T05:45:49.875Z,30.30
2018-07-17T05:48:18.812Z,30.60
2018-07-17T05:50:48.000Z,30.90
2018-07-17T05:53:16.846Z,31.10
2018-07-17T05:55:45.763Z,31.30
2018-07-17T05:58:14.776Z,31.50
2018-07-17T06:00:43.921Z,31.70
2018-07-17T06:03:12.866Z,31.80
2018-07-17T06:05:41.727Z,31.90
2018-07-17T06:10:39.199Z,31.90
2018-07-17T06:13:08.136Z,31.60
2018-07-17T06:15:37.021Z,31.00
2018-07-17T06:18:06.083Z,30.30
2018-07-17T06:20:35.083Z,29.80
2018-07-17T06:23:04.025Z,29.30
2018-07-17T06:25:32.892Z,28.70
2018-07-17T06:28:01.740Z,28.30
2018-07-17T06:30:30.678Z,28.00
2018-07-17T06:32:59.671Z,27.80
2018-07-17T06:35:28.569Z,27.50
2018-07-17T06:37:57.472Z,27.20
2018-07-17T06:40:26.604Z,27.00
2018-07-17T06:42:55.507Z,26.70
2018-07-17T06:45:24.632Z,26.50
2018-07-17T06:47:53.464Z,26.20
2018-07-17T06:50:22.472Z,26.10
2018-07-17T06:52:51.375Z,26.10
2018-07-17T06:55:20.271Z,26.00
2018-07-17T06:57:49.154Z,26.00
2018-07-17T07:00:18.035Z,25.80
2018-07-17T07:02:46.889Z,25.80
2018-07-17T07:05:15.821Z,25.70
2018-07-17T07:07:44.696Z,25.70
2018-07-17T07:10:13.687Z,25.60
2018-07-17T07:12:42.699Z,25.60
2018-07-17T07:15:11.762Z,25.50
2018-07-17T07:17:40.610Z,25.60
2018-07-17T07:20:09.795Z,25.60
2018-07-17T07:22:38.694Z,25.70
2018-07-17T07:25:07.619Z,25.70
2018-07-17T07:27:36.828Z,25.70
2018-07-17T07:30:06.174Z,25.70
2018-07-17T07:32:35.115Z,25.70
2018-07-17T07:35:04.159Z,25.70
2018-07-17T07:37:33.135Z,25.70
2018-07-17T07:40:02.682Z,25.70
2018-07-17T07:42:31.604Z,25.80
2018-07-17T07:45:00.517Z,25.80
2018-07-17T07:47:29.584Z,25.90
2018-07-17T07:49:58.492Z,26.00
2018-07-17T07:52:27.381Z,26.00
2018-07-17T07:54:56.277Z,26.10
2018-07-17T07:57:25.180Z,26.10
2018-07-17T07:59:54.079Z,26.10
2018-07-17T08:02:23.010Z,26.20
2018-07-17T08:04:51.936Z,26.20
2018-07-17T08:07:20.783Z,26.30
2018-07-17T08:09:49.690Z,26.30
2018-07-17T08:12:18.649Z,26.30
2018-07-17T08:14:47.464Z,26.40
2018-07-17T08:17:16.358Z,26.50
2018-07-17T08:19:45.354Z,26.50
2018-07-17T08:22:14.394Z,26.60
2018-07-17T08:24:43.291Z,26.60
2018-07-17T08:27:12.195Z,26.80
2018-07-17T08:29:41.355Z,26.90
2018-07-17T08:32:10.392Z,27.00
2018-07-17T08:37:07.788Z,27.10
2018-07-17T08:39:36.808Z,27.10
2018-07-17T08:42:05.881Z,27.10
2018-07-17T08:44:34.777Z,27.20
2018-07-17T08:47:03.772Z,27.40
2018-07-17T08:49:32.632Z,27.50
2018-07-17T08:54:30.085Z,27.60
2018-07-17T08:56:58.937Z,27.60
2018-07-17T08:59:27.928Z,27.50
2018-07-17T09:01:56.817Z,27.50
2018-07-17T09:04:25.688Z,27.50
2018-07-17T09:06:54.632Z,27.50
2018-07-17T09:09:23.520Z,27.50
2018-07-17T09:14:20.935Z,27.50
2018-07-17T09:16:49.908Z,27.50
2018-07-17T09:21:47.268Z,27.60
2018-07-17T09:24:16.159Z,27.60
2018-07-17T09:26:45.028Z,27.50
2018-07-17T09:29:13.981Z,27.50
2018-07-17T09:31:42.842Z,27.40
2018-07-17T09:34:11.850Z,27.50
2018-07-17T09:36:40.760Z,27.50
2018-07-17T09:39:09.768Z,27.60
2018-07-17T09:41:38.864Z,27.50
2018-07-17T09:44:07.719Z,27.50
2018-07-17T09:46:36.594Z,27.60
2018-07-17T09:49:05.840Z,27.70
2018-07-17T09:51:34.764Z,27.70
2018-07-17T09:54:03.629Z,27.80
2018-07-17T09:56:32.527Z,27.80
2018-07-17T09:59:01.691Z,27.80
2018-07-17T10:01:30.687Z,27.90
2018-07-17T10:03:59.665Z,28.00
2018-07-17T10:06:28.688Z,28.00
2018-07-17T10:08:57.815Z,28.00
2018-07-17T10:11:26.816Z,28.00
2018-07-17T10:13:56.068Z,28.10
2018-07-17T10:16:25.039Z,28.10
2018-07-17T10:18:54.129Z,28.10
2018-07-17T10:21:23.120Z,28.20
2018-07-17T10:23:52.244Z,28.20
2018-07-17T10:26:21.321Z,28.30
2018-07-17T10:28:50.232Z,28.40
2018-07-17T10:31:19.358Z,28.40
2018-07-17T10:33:48.287Z,28.50
2018-07-17T10:36:17.402Z,28.50
2018-07-17T10:38:46.418Z,28.50
2018-07-17T10:41:15.376Z,28.60
2018-07-17T10:43:44.400Z,28.60
2018-07-17T10:46:13.355Z,28.60
2018-07-17T10:48:42.295Z,28.50
2018-07-17T10:51:11.243Z,28.50
2018-07-17T10:53:40.191Z,28.60
2018-07-17T10:56:09.182Z,28.60
2018-07-17T10:58:38.832Z,28.70
2018-07-17T11:01:08.050Z,28.70
2018-07-17T11:03:36.952Z,28.70
2018-07-17T11:06:05.916Z,28.80
2018-07-17T11:08:34.829Z,28.90
2018-07-17T11:11:03.796Z,28.90
2018-07-17T11:13:32.724Z,29.00
2018-07-17T11:16:01.877Z,29.10
2018-07-17T11:18:30.884Z,29.20
2018-07-17T11:20:59.827Z,29.20
2018-07-17T11:23:29.055Z,29.20
2018-07-17T11:25:58.127Z,29.20
2018-07-17T11:28:27.086Z,29.20
2018-07-17T11:30:56.021Z,29.30
2018-07-17T11:33:24.921Z,29.40
2018-07-17T11:35:54.997Z,29.30
2018-07-17T11:38:23.877Z,29.40
2018-07-17T11:40:52.829Z,29.40
2018-07-17T11:43:21.760Z,29.30
2018-07-17T11:45:50.669Z,29.30
2018-07-17T11:48:19.554Z,29.40
2018-07-17T11:50:48.433Z,29.50
2018-07-17T11:53:17.361Z,29.50
2018-07-17T11:55:46.399Z,29.60
2018-07-17T11:58:15.451Z,29.70
2018-07-17T12:00:44.543Z,29.70
2018-07-17T12:03:13.412Z,29.70
2018-07-17T12:05:42.430Z,29.80
2018-07-17T12:08:11.371Z,29.80
2018-07-17T12:10:40.333Z,29.80
2018-07-17T12:13:09.340Z,29.90
2018-07-17T12:15:38.333Z,30.00
2018-07-17T12:18:07.267Z,30.10
2018-07-17T12:20:36.325Z,30.20
2018-07-17T12:23:05.267Z,30.20
2018-07-17T12:25:34.201Z,30.30
2018-07-17T12:30:31.831Z,30.50
2018-07-17T12:33:00.871Z,30.60
2018-07-17T12:35:30.157Z,30.70
2018-07-17T12:37:59.054Z,30.70
2018-07-17T12:42:56.484Z,30.60
2018-07-17T12:45:25.439Z,30.70
2018-07-17T12:47:54.340Z,30.90
2018-07-17T12:50:23.272Z,30.90
2018-07-17T12:52:52.994Z,31.00
2018-07-17T12:55:21.840Z,31.00
2018-07-17T12:57:50.720Z,31.00
2018-07-17T13:00:19.739Z,31.00
2018-07-17T13:02:48.810Z,31.00
2018-07-17T13:05:17.639Z,31.00
2018-07-17T13:07:46.536Z,30.80
2018-07-17T13:10:15.489Z,30.60
2018-07-17T13:12:44.378Z,30.50
2018-07-17T13:15:13.281Z,30.40
2018-07-17T13:17:42.314Z,30.40
2018-07-17T13:20:11.240Z,30.30
2018-07-17T13:22:40.128Z,30.30
2018-07-17T13:25:09.237Z,30.30
2018-07-17T13:27:38.218Z,30.40
2018-07-17T13:30:07.207Z,30.40
2018-07-17T13:32:36.161Z,30.40
2018-07-17T13:35:05.088Z,30.40
2018-07-17T13:37:34.078Z,30.40
2018-07-17T13:40:03.200Z,30.60
2018-07-17T13:42:32.141Z,30.70
2018-07-17T13:45:01.052Z,30.80
2018-07-17T13:47:30.064Z,30.80
2018-07-17T13:49:59.044Z,30.90
2018-07-17T13:52:27.946Z,30.90
2018-07-17T13:54:57.724Z,31.00
2018-07-17T13:57:26.608Z,31.00
2018-07-17T13:59:55.518Z,31.00
2018-07-17T14:04:53.208Z,31.10
2018-07-17T14:07:22.202Z,31.00
2018-07-17T14:09:51.055Z,31.00
2018-07-17T14:12:20.035Z,30.90
2018-07-17T14:14:48.988Z,30.80
2018-07-17T14:17:17.969Z,30.80
2018-07-17T14:19:46.950Z,30.90
2018-07-17T14:22:15.835Z,30.90
2018-07-17T14:24:44.679Z,31.00
2018-07-17T14:27:13.698Z,31.10
2018-07-17T14:29:42.543Z,31.10
2018-07-17T14:34:40.052Z,31.20
2018-07-17T14:37:08.980Z,31.10
2018-07-17T14:39:37.919Z,31.10
2018-07-17T14:42:06.867Z,31.00
2018-07-17T14:44:35.900Z,30.90
2018-07-17T14:47:04.942Z,30.90
2018-07-17T14:49:34.057Z,30.70
2018-07-17T14:52:02.958Z,30.50
2018-07-17T14:54:31.859Z,30.50
2018-07-17T14:57:00.818Z,30.40
2018-07-17T14:59:29.655Z,30.30
2018-07-17T15:01:58.595Z,30.30
2018-07-17T15:04:27.501Z,30.30
2018-07-17T15:06:56.574Z,30.50
2018-07-17T15:09:25.522Z,30.60
2018-07-17T15:11:54.422Z,30.60
2018-07-17T15:14:23.280Z,30.50
2018-07-17T15:16:52.269Z,30.50
2018-07-17T15:19:21.153Z,30.40
2018-07-17T15:21:49.999Z,30.40
2018-07-17T15:24:18.893Z,30.40
2018-07-17T15:26:48.088Z,30.20
2018-07-17T15:29:17.102Z,30.10
2018-07-17T15:31:46.127Z,30.10
2018-07-17T15:34:15.072Z,30.00
2018-07-17T15:36:44.124Z,30.00
2018-07-17T15:39:13.490Z,30.00
2018-07-17T15:41:42.850Z,29.90
2018-07-17T15:44:11.731Z,29.90
2018-07-17T15:46:40.727Z,30.00
2018-07-17T15:49:09.605Z,30.00
2018-07-17T15:51:38.623Z,30.10
2018-07-17T15:54:07.852Z,30.10
2018-07-17T15:56:36.700Z,30.10
2018-07-17T15:59:05.699Z,30.00
2018-07-17T16:01:34.595Z,29.80
2018-07-17T16:04:03.620Z,29.70
2018-07-17T16:06:32.634Z,29.60
2018-07-17T16:11:30.044Z,29.60
2018-07-17T16:13:59.503Z,29.60
2018-07-17T16:16:28.215Z,29.60
2018-07-17T16:18:57.120Z,29.50
2018-07-17T16:21:26.033Z,29.50
2018-07-17T16:23:54.900Z,29.40
2018-07-17T16:26:23.860Z,29.40
2018-07-17T16:28:52.907Z,29.40
2018-07-17T16:31:21.810Z,29.40
2018-07-17T16:33:50.987Z,29.50
2018-07-17T16:36:19.915Z,29.50
2018-07-17T16:38:48.867Z,29.50
2018-07-17T16:41:17.761Z,29.50
2018-07-17T16:43:46.807Z,29.50
2018-07-17T16:46:15.701Z,29.40
2018-07-17T16:48:44.589Z,29.30
2018-07-17T16:51:13.503Z,29.30
2018-07-17T16:53:42.449Z,29.20
2018-07-17T16:56:11.314Z,29.10
2018-07-17T16:58:40.402Z,29.00
2018-07-17T17:01:09.344Z,29.00
2018-07-17T17:03:38.295Z,29.00
2018-07-17T17:06:07.135Z,29.00
2018-07-17T17:08:36.084Z,29.00
2018-07-17T17:11:04.936Z,29.00
2018-07-17T17:13:33.922Z,29.00
2018-07-17T17:16:02.862Z,28.90
2018-07-17T17:18:32.035Z,28.90
2018-07-17T17:21:00.968Z,28.80
2018-07-17T17:23:30.157Z,28.70
2018-07-17T17:25:59.005Z,28.60
2018-07-17T17:28:27.898Z,28.70
2018-07-17T17:30:56.752Z,28.70
2018-07-17T17:33:38.692Z,28.60
2018-07-17T17:36:10.491Z,28.70
2018-07-17T17:38:39.425Z,28.60
2018-07-17T17:41:08.423Z,28.60
2018-07-17T17:43:37.566Z,28.60
2018-07-17T17:46:06.531Z,28.50
2018-07-17T17:48:35.412Z,28.50
2018-07-17T17:51:04.312Z,28.50
2018-07-17T17:56:01.673Z,28.20
2018-07-17T17:58:30.576Z,28.10
2018-07-17T18:00:59.554Z,28.10
2018-07-17T18:03:28.398Z,28.00
2018-07-17T18:05:57.460Z,27.90
2018-07-17T18:08:26.372Z,27.70
2018-07-17T18:10:55.304Z,27.60
2018-07-17T18:13:24.389Z,27.50
2018-07-17T18:15:53.364Z,27.30
2018-07-17T18:18:22.248Z,27.20
2018-07-17T18:20:51.194Z,27.10
2018-07-17T18:25:48.575Z,26.70
2018-07-17T18:28:17.602Z,26.60
2018-07-17T18:30:46.549Z,26.60
2018-07-17T18:33:15.469Z,26.40
2018-07-17T18:35:44.383Z,26.40
2018-07-17T18:38:13.261Z,26.40
2018-07-17T18:40:42.354Z,26.30
2018-07-17T18:43:11.386Z,26.20
2018-07-17T18:45:41.083Z,26.20
2018-07-17T18:48:10.042Z,26.10
2018-07-17T18:53:07.589Z,25.90
2018-07-17T18:55:36.744Z,25.80
2018-07-17T18:58:05.732Z,25.60
2018-07-17T19:00:34.835Z,25.50
2018-07-17T19:03:03.909Z,25.30
2018-07-17T19:05:32.887Z,25.20
2018-07-17T19:08:01.966Z,25.10
2018-07-17T19:10:31.002Z,25.10
2018-07-17T19:13:00.046Z,24.90
2018-07-17T19:15:29.033Z,24.80
2018-07-17T19:17:58.038Z,24.70
2018-07-17T19:20:27.064Z,24.50
2018-07-17T19:22:56.030Z,24.50
2018-07-17T19:25:25.240Z,24.40
2018-07-17T19:27:54.124Z,24.30
2018-07-17T19:30:23.854Z,24.20
2018-07-17T19:32:52.967Z,24.20
2018-07-17T19:35:22.147Z,24.20
2018-07-17T19:37:51.320Z,24.10
2018-07-17T19:40:20.233Z,24.00
2018-07-17T19:42:49.321Z,23.80
2018-07-17T19:45:18.173Z,23.70
2018-07-17T19:47:47.113Z,23.60
2018-07-17T19:50:16.036Z,23.40
2018-07-17T19:52:44.944Z,23.30
2018-07-17T19:55:19.484Z,23.30
2018-07-17T19:58:03.260Z,23.20
2018-07-17T20:00:43.497Z,23.20
2018-07-17T20:03:13.742Z,23.20
2018-07-17T20:05:42.660Z,23.20
2018-07-17T20:08:11.638Z,23.10
2018-07-17T20:10:40.464Z,23.00
2018-07-17T20:13:09.492Z,22.90
2018-07-17T20:15:38.436Z,22.90
2018-07-17T20:18:07.399Z,22.90
2018-07-17T20:20:36.281Z,22.90
2018-07-17T20:23:05.401Z,22.90
2018-07-17T20:25:34.306Z,22.80
2018-07-17T20:28:03.256Z,22.80
2018-07-17T20:30:32.200Z,22.80
2018-07-17T20:33:01.114Z,22.80
2018-07-17T20:35:30.336Z,22.70
2018-07-17T20:37:59.347Z,22.60
2018-07-17T20:40:28.943Z,22.50
2018-07-17T20:42:57.866Z,22.40
2018-07-17T20:45:26.905Z,22.40
2018-07-17T20:47:55.852Z,22.30
2018-07-17T20:50:24.976Z,22.30
2018-07-17T20:52:54.131Z,22.30
2018-07-17T20:55:23.008Z,22.30
2018-07-17T20:57:52.028Z,22.30
2018-07-17T21:00:20.949Z,22.20
2018-07-17T21:02:49.878Z,22.20
2018-07-17T21:05:18.959Z,22.20
2018-07-17T21:07:47.898Z,22.10
2018-07-17T21:10:16.792Z,22.10
2018-07-17T21:12:45.859Z,22.10
2018-07-17T21:15:14.783Z,22.10
2018-07-17T21:17:43.755Z,22.20
2018-07-17T21:20:12.609Z,22.20
2018-07-17T21:22:41.516Z,22.20
2018-07-17T21:25:10.594Z,22.10
2018-07-17T21:27:39.444Z,22.10
2018-07-17T21:30:08.303Z,22.00
2018-07-17T21:32:37.196Z,22.00
2018-07-17T21:35:06.196Z,21.90
2018-07-17T21:37:35.267Z,21.80
2018-07-17T21:40:04.444Z,21.80
2018-07-17T21:42:33.315Z,21.80
2018-07-17T21:45:02.293Z,21.70
2018-07-17T21:47:31.165Z,21.70
2018-07-17T21:50:00.057Z,21.70
2018-07-17T21:52:28.931Z,21.60
2018-07-17T21:54:57.952Z,21.60
2018-07-17T21:57:26.873Z,21.60
2018-07-17T21:59:55.813Z,21.60
2018-07-17T22:02:24.878Z,21.60
2018-07-17T22:04:53.961Z,21.60
2018-07-17T22:07:23.001Z,21.60
2018-07-17T22:09:51.830Z,21.60
2018-07-17T22:12:20.743Z,21.60
2018-07-17T22:14:49.671Z,21.60
2018-07-17T22:17:18.741Z,21.50
2018-07-17T22:19:47.704Z,21.60
2018-07-17T22:22:16.688Z,21.60
2018-07-17T22:24:45.548Z,21.70
2018-07-17T22:27:14.418Z,21.70
2018-07-17T22:29:43.306Z,21.70
2018-07-17T22:32:12.203Z,21.70
2018-07-17T22:34:41.119Z,21.70
2018-07-17T22:37:10.038Z,21.70
2018-07-17T22:39:38.949Z,21.80
2018-07-17T22:42:07.778Z,21.90
2018-07-17T22:44:36.656Z,22.00
2018-07-17T22:47:05.553Z,21.90
2018-07-17T22:49:34.416Z,21.90
2018-07-17T22:52:03.315Z,21.80
2018-07-17T22:54:32.197Z,21.70
2018-07-17T22:57:01.135Z,21.70
2018-07-17T22:59:30.291Z,21.80
2018-07-17T23:01:59.246Z,21.80
2018-07-17T23:04:28.060Z,21.80
2018-07-17T23:06:57.009Z,21.70
2018-07-17T23:09:25.844Z,21.80
2018-07-17T23:11:54.925Z,21.80
2018-07-17T23:14:23.980Z,21.80
2018-07-17T23:16:52.924Z,21.80
2018-07-17T23:19:21.744Z,21.70
2018-07-17T23:21:50.607Z,21.80
2018-07-17T23:24:19.987Z,21.70
2018-07-17T23:26:48.942Z,21.70
2018-07-17T23:29:17.821Z,21.70
2018-07-17T23:31:46.777Z,21.70
2018-07-17T23:34:15.659Z,21.50
2018-07-17T23:36:44.670Z,21.70
2018-07-17T23:39:13.741Z,21.50
2018-07-17T23:41:42.682Z,21.50
2018-07-17T23:44:11.560Z,21.40
2018-07-17T23:46:40.525Z,21.20
2018-07-17T23:49:09.484Z,21.10
2018-07-17T23:51:38.347Z,20.80
2018-07-17T23:54:07.257Z,20.70
2018-07-17T23:56:36.121Z,20.60
2018-07-17T23:59:05.277Z,20.50
